createdAt,value
2018-12-17T00:00:04.008Z,35.63
2018-12-17T00:02:32.424Z,34.03
2018-12-17T00:05:00.901Z,35.27
2018-12-17T00:07:29.362Z,33.33
2018-12-17T00:09:57.815Z,36.27
2018-12-17T00:12:26.243Z,31.83
2018-12-17T00:14:54.698Z,35.43
2018-12-17T00:17:23.197Z,35.10
2018-12-17T00:19:51.659Z,33.03
2018-12-17T00:22:20.155Z,34.63
2018-12-17T00:24:48.575Z,32.23
2018-12-17T00:27:17.075Z,35.30
2018-12-17T00:29:45.491Z,31.60
2018-12-17T00:32:13.955Z,33.20
2018-12-17T00:34:42.366Z,30.70
2018-12-17T00:37:10.867Z,34.63
2018-12-17T00:39:39.355Z,30.77
2018-12-17T00:42:07.780Z,28.63
2018-12-17T00:44:36.247Z,18.77
2018-12-17T00:47:04.699Z,17.53
2018-12-17T00:49:33.123Z,20.63
2018-12-17T00:52:01.588Z,20.80
2018-12-17T00:54:30.000Z,19.63
2018-12-17T00:56:58.610Z,17.40
2018-12-17T00:59:27.064Z,15.57
2018-12-17T01:01:55.542Z,13.80
2018-12-17T01:04:23.955Z,15.13
2018-12-17T01:06:52.419Z,14.77
2018-12-17T01:09:20.875Z,17.07
2018-12-17T01:11:49.281Z,15.80
2018-12-17T01:14:17.731Z,17.87
2018-12-17T01:16:46.284Z,20.83
2018-12-17T01:19:14.831Z,22.30
2018-12-17T01:21:44.098Z,14.93
2018-12-17T01:24:12.639Z,15.60
2018-12-17T01:26:41.155Z,15.73
2018-12-17T01:29:09.644Z,15.30
2018-12-17T01:31:38.057Z,15.63
2018-12-17T01:34:06.506Z,17.93
2018-12-17T01:36:34.924Z,16.80
2018-12-17T01:39:04.391Z,21.77
2018-12-17T01:41:32.879Z,17.57
2018-12-17T01:44:01.364Z,12.80
2018-12-17T01:46:29.898Z,13.57
2018-12-17T01:48:58.311Z,13.20
2018-12-17T01:51:26.784Z,15.07
2018-12-17T01:53:55.239Z,15.57
2018-12-17T01:56:23.658Z,16.13
2018-12-17T01:58:52.167Z,15.07
2018-12-17T02:01:20.641Z,14.13
2018-12-17T02:03:49.131Z,15.00
2018-12-17T02:06:17.855Z,15.83
2018-12-17T02:08:46.313Z,16.37
2018-12-17T02:11:14.743Z,17.27
2018-12-17T02:13:43.331Z,18.97
2018-12-17T02:16:11.759Z,22.93
2018-12-17T02:18:40.270Z,26.63
2018-12-17T02:21:08.698Z,30.00
2018-12-17T02:23:37.151Z,22.53
2018-12-17T02:26:05.615Z,21.07
2018-12-17T02:28:36.314Z,25.80
2018-12-17T02:31:04.579Z,26.90
2018-12-17T02:33:32.998Z,30.73
2018-12-17T02:36:01.563Z,37.57
2018-12-17T02:38:30.014Z,35.83
2018-12-17T02:40:58.467Z,43.17
2018-12-17T02:43:26.912Z,42.73
2018-12-17T02:45:55.323Z,40.43
2018-12-17T02:48:23.792Z,38.47
2018-12-17T02:50:52.260Z,37.27
2018-12-17T02:53:20.719Z,39.47
2018-12-17T02:55:49.132Z,39.50
2018-12-17T02:58:17.589Z,34.00
2018-12-17T03:00:46.159Z,37.77
2018-12-17T03:03:14.804Z,42.57
2018-12-17T03:05:43.233Z,41.37
2018-12-17T03:08:11.675Z,44.83
2018-12-17T03:10:40.221Z,42.37
2018-12-17T03:13:08.708Z,49.93
2018-12-17T03:15:37.143Z,45.70
2018-12-17T03:18:05.611Z,48.43
2018-12-17T03:20:34.102Z,48.87
2018-12-17T03:23:02.566Z,50.00
2018-12-17T03:25:30.982Z,51.70
2018-12-17T03:27:59.400Z,52.37
2018-12-17T03:30:27.829Z,50.40
2018-12-17T03:32:56.305Z,47.20
2018-12-17T03:35:24.884Z,51.57
2018-12-17T03:37:53.326Z,49.33
2018-12-17T03:40:21.872Z,49.83
2018-12-17T03:42:50.283Z,47.63
2018-12-17T03:45:18.754Z,46.03
2018-12-17T03:47:47.194Z,46.00
2018-12-17T03:50:15.687Z,43.77
2018-12-17T03:52:44.140Z,45.87
2018-12-17T03:55:12.580Z,45.40
2018-12-17T03:57:40.995Z,48.83
2018-12-17T04:00:09.571Z,47.73
2018-12-17T04:02:38.018Z,44.60
2018-12-17T04:05:07.035Z,46.23
2018-12-17T04:07:35.474Z,46.50
2018-12-17T04:10:04.587Z,48.07
2018-12-17T04:12:34.116Z,45.43
2018-12-17T04:15:02.543Z,42.40
2018-12-17T04:17:31.015Z,48.53
2018-12-17T04:19:59.461Z,46.30
2018-12-17T04:22:27.919Z,45.63
2018-12-17T04:24:56.334Z,49.87
2018-12-17T04:27:24.788Z,47.43
2018-12-17T04:29:53.335Z,46.47
2018-12-17T04:32:21.759Z,49.60
2018-12-17T04:34:50.224Z,44.83
2018-12-17T04:37:18.693Z,46.07
2018-12-17T04:39:47.119Z,50.00
2018-12-17T04:42:15.622Z,49.07
2018-12-17T04:44:44.055Z,50.53
2018-12-17T04:47:12.507Z,51.30
2018-12-17T04:49:40.993Z,46.40
2018-12-17T04:52:09.483Z,46.63
2018-12-17T04:54:37.997Z,43.43
2018-12-17T04:57:06.527Z,47.30
2018-12-17T04:59:34.976Z,43.43
2018-12-17T05:02:03.445Z,48.10
2018-12-17T05:04:31.924Z,46.83
2018-12-17T05:07:00.347Z,43.63
2018-12-17T05:09:28.807Z,48.57
2018-12-17T05:11:57.248Z,50.00
2018-12-17T05:14:25.858Z,47.40
2018-12-17T05:16:54.293Z,46.03
2018-12-17T05:19:22.739Z,51.33
2018-12-17T05:21:51.205Z,46.00
2018-12-17T05:24:19.671Z,49.33
2018-12-17T05:26:48.124Z,49.77
2018-12-17T05:29:21.570Z,44.90
2018-12-17T05:31:47.008Z,50.43
2018-12-17T05:34:15.455Z,48.07
2018-12-17T05:36:43.947Z,48.93
2018-12-17T05:39:12.498Z,49.90
2018-12-17T05:41:40.920Z,47.97
2018-12-17T05:44:09.336Z,47.67
2018-12-17T05:46:37.780Z,48.03
2018-12-17T05:49:06.180Z,51.03
2018-12-17T05:51:34.673Z,47.97
2018-12-17T05:54:03.105Z,48.37
2018-12-17T05:56:31.551Z,51.20
2018-12-17T05:59:00.030Z,44.97
2018-12-17T06:01:28.450Z,49.57
2018-12-17T06:03:57.972Z,48.37
2018-12-17T06:06:26.388Z,47.33
2018-12-17T06:08:54.854Z,45.33
2018-12-17T06:11:23.280Z,48.10
2018-12-17T06:13:52.440Z,48.73
2018-12-17T06:16:20.863Z,53.70
2018-12-17T06:18:49.378Z,55.27
2018-12-17T06:21:17.823Z,49.47
2018-12-17T06:23:46.267Z,52.20
2018-12-17T06:26:14.692Z,51.50
2018-12-17T06:28:43.163Z,51.47
2018-12-17T06:31:18.020Z,47.43
2018-12-17T06:33:46.664Z,49.90
2018-12-17T06:36:15.082Z,48.43
2018-12-17T06:38:43.553Z,50.30
2018-12-17T06:41:11.997Z,49.87
2018-12-17T06:43:40.431Z,51.10
2018-12-17T06:46:08.883Z,57.50
2018-12-17T06:48:37.328Z,56.50
2018-12-17T06:51:05.784Z,54.33
2018-12-17T06:53:34.210Z,50.13
2018-12-17T06:56:02.703Z,46.47
2018-12-17T06:58:31.500Z,55.63
2018-12-17T07:01:00.071Z,53.93
2018-12-17T07:03:28.575Z,52.63
2018-12-17T07:05:56.987Z,50.83
2018-12-17T07:08:25.441Z,48.87
2018-12-17T07:10:53.867Z,50.77
2018-12-17T07:13:22.319Z,48.40
2018-12-17T07:15:50.748Z,46.87
2018-12-17T07:18:19.191Z,50.47
2018-12-17T07:20:47.630Z,50.27
2018-12-17T07:23:16.079Z,50.70
2018-12-17T07:25:44.564Z,46.20
2018-12-17T07:28:12.988Z,48.47
2018-12-17T07:30:41.416Z,50.17
2018-12-17T07:33:09.871Z,52.73
2018-12-17T07:35:38.299Z,53.60
2018-12-17T07:38:06.750Z,49.27
2018-12-17T07:40:35.347Z,48.57
2018-12-17T07:43:03.840Z,52.43
2018-12-17T07:45:32.395Z,48.87
2018-12-17T07:48:00.831Z,53.53
2018-12-17T07:50:29.285Z,55.67
2018-12-17T07:52:57.745Z,51.30
2018-12-17T07:55:26.167Z,51.10
2018-12-17T07:57:54.630Z,51.77
2018-12-17T08:00:23.037Z,49.83
2018-12-17T08:02:51.501Z,51.90
2018-12-17T08:05:19.934Z,49.80
2018-12-17T08:07:48.384Z,48.30
2018-12-17T08:10:16.835Z,51.23
2018-12-17T08:12:45.370Z,49.30
2018-12-17T08:15:13.803Z,51.53
2018-12-17T08:17:42.394Z,50.10
2018-12-17T08:20:10.923Z,50.77
2018-12-17T08:22:40.386Z,54.93
2018-12-17T08:25:09.729Z,51.97
2018-12-17T08:27:38.894Z,55.03
2018-12-17T08:30:08.027Z,49.83
2018-12-17T08:32:36.504Z,52.60
2018-12-17T08:35:05.203Z,54.20
2018-12-17T08:37:33.702Z,51.53
2018-12-17T08:40:02.231Z,52.50
2018-12-17T08:42:31.251Z,52.83
2018-12-17T08:44:59.697Z,48.10
2018-12-17T08:47:28.111Z,55.07
2018-12-17T08:49:56.722Z,56.93
2018-12-17T08:52:25.146Z,53.27
2018-12-17T08:54:54.472Z,55.23
2018-12-17T08:57:23.129Z,50.77
2018-12-17T08:59:51.545Z,53.20
2018-12-17T09:02:20.008Z,51.33
2018-12-17T09:04:48.419Z,53.10
2018-12-17T09:07:16.856Z,53.13
2018-12-17T09:09:45.320Z,53.07
2018-12-17T09:12:13.760Z,49.73
2018-12-17T09:14:42.169Z,52.67
2018-12-17T09:17:10.704Z,50.00
2018-12-17T09:19:39.820Z,47.87
2018-12-17T09:22:08.252Z,49.43
2018-12-17T09:24:36.922Z,48.70
2018-12-17T09:27:05.520Z,48.83
2018-12-17T09:29:34.186Z,47.03
2018-12-17T09:32:02.638Z,47.47
2018-12-17T09:34:31.092Z,51.37
2018-12-17T09:36:59.557Z,48.47
2018-12-17T09:39:28.076Z,51.20
2018-12-17T09:41:56.685Z,51.77
2018-12-17T09:44:25.104Z,52.27
2018-12-17T09:46:53.523Z,49.00
2018-12-17T09:49:22.500Z,52.03
2018-12-17T09:51:50.939Z,49.13
2018-12-17T09:54:19.639Z,51.73
2018-12-17T09:56:48.127Z,50.07
2018-12-17T09:59:16.591Z,51.80
2018-12-17T10:01:47.081Z,50.00
2018-12-17T10:04:15.624Z,52.93
2018-12-17T10:06:44.196Z,50.97
2018-12-17T10:09:12.675Z,47.30
2018-12-17T10:11:41.152Z,54.23
2018-12-17T10:14:09.591Z,53.97
2018-12-17T10:16:38.020Z,50.70
2018-12-17T10:19:06.517Z,51.50
2018-12-17T10:21:35.249Z,52.57
2018-12-17T10:24:04.023Z,48.20
2018-12-17T10:26:32.569Z,50.67
2018-12-17T10:29:00.979Z,54.83
2018-12-17T10:31:29.435Z,51.90
2018-12-17T10:33:57.923Z,51.07
2018-12-17T10:36:26.386Z,54.23
2018-12-17T10:38:55.396Z,52.20
2018-12-17T10:41:24.168Z,51.93
2018-12-17T10:43:52.611Z,51.23
2018-12-17T10:46:21.117Z,56.63
2018-12-17T10:48:49.563Z,55.63
2018-12-17T10:51:18.056Z,56.47
2018-12-17T10:53:46.499Z,56.70
2018-12-17T10:56:14.939Z,56.67
2018-12-17T10:58:43.393Z,58.70
2018-12-17T11:01:17.423Z,59.50
2018-12-17T11:03:53.031Z,58.23
2018-12-17T11:06:22.922Z,56.70
2018-12-17T11:08:52.448Z,59.47
2018-12-17T11:11:20.854Z,58.57
2018-12-17T11:13:49.292Z,61.20
2018-12-17T11:16:18.047Z,60.97
2018-12-17T11:18:47.488Z,64.37
2018-12-17T11:21:16.177Z,61.30
2018-12-17T11:23:44.615Z,59.10
2018-12-17T11:26:13.023Z,59.93
2018-12-17T11:28:41.514Z,63.93
2018-12-17T11:31:09.964Z,61.10
2018-12-17T11:33:38.387Z,61.37
2018-12-17T11:36:06.867Z,60.13
2018-12-17T11:38:35.328Z,67.13
2018-12-17T11:41:03.954Z,66.63
2018-12-17T11:43:32.409Z,60.13
2018-12-17T11:46:02.861Z,62.50
2018-12-17T11:48:31.445Z,65.77
2018-12-17T11:50:59.912Z,64.87
2018-12-17T11:53:28.358Z,60.83
2018-12-17T11:55:56.787Z,65.27
2018-12-17T11:58:25.236Z,63.43
2018-12-17T12:01:01.823Z,63.17
2018-12-17T12:03:30.896Z,63.27
2018-12-17T12:05:59.354Z,66.43
2018-12-17T12:08:27.835Z,70.23
2018-12-17T12:10:56.908Z,69.40
2018-12-17T12:13:25.348Z,68.87
2018-12-17T12:15:53.828Z,68.40
2018-12-17T12:18:22.413Z,61.80
2018-12-17T12:20:51.163Z,63.23
2018-12-17T12:23:19.696Z,62.33
2018-12-17T12:25:48.160Z,64.20
2018-12-17T12:28:16.600Z,64.37
2018-12-17T12:30:45.062Z,64.90
2018-12-17T12:33:13.557Z,62.73
2018-12-17T12:35:42.044Z,65.73
2018-12-17T12:38:10.633Z,66.90
2018-12-17T12:40:39.073Z,67.07
2018-12-17T12:43:07.591Z,64.80
2018-12-17T12:45:36.031Z,69.93
2018-12-17T12:48:04.655Z,71.67
2018-12-17T12:50:33.117Z,68.67
2018-12-17T12:53:01.539Z,69.83
2018-12-17T12:55:29.951Z,66.80
2018-12-17T12:58:03.634Z,66.33
2018-12-17T13:00:29.041Z,66.67
2018-12-17T13:02:57.492Z,70.10
2018-12-17T13:05:25.925Z,68.67
2018-12-17T13:07:54.408Z,68.57
2018-12-17T13:10:22.831Z,77.03
2018-12-17T13:12:51.235Z,70.93
2018-12-17T13:15:19.687Z,72.93
2018-12-17T13:17:48.207Z,71.10
2018-12-17T13:20:16.803Z,71.23
2018-12-17T13:22:45.236Z,71.87
2018-12-17T13:25:18.707Z,65.60
2018-12-17T13:27:47.229Z,67.40
2018-12-17T13:30:15.723Z,68.37
2018-12-17T13:32:44.291Z,67.03
2018-12-17T13:35:12.935Z,68.20
2018-12-17T13:37:41.798Z,71.53
2018-12-17T13:40:11.203Z,68.63
2018-12-17T13:42:39.727Z,68.40
2018-12-17T13:45:08.445Z,72.20
2018-12-17T13:47:38.418Z,65.37
2018-12-17T13:50:12.752Z,69.70
2018-12-17T13:52:46.905Z,66.80
2018-12-17T13:55:15.941Z,68.27
2018-12-17T13:57:44.456Z,61.57
2018-12-17T14:00:13.767Z,67.67
2018-12-17T14:02:42.422Z,71.40
2018-12-17T14:05:11.345Z,64.50
2018-12-17T14:07:40.303Z,73.93
2018-12-17T14:10:16.034Z,72.67
2018-12-17T14:12:44.642Z,72.07
2018-12-17T14:15:13.435Z,71.90
2018-12-17T14:17:46.139Z,72.20
2018-12-17T14:20:19.948Z,72.53
2018-12-17T14:22:48.511Z,73.27
2018-12-17T14:25:17.028Z,71.00
2018-12-17T14:27:45.529Z,70.77
2018-12-17T14:30:14.140Z,68.50
2018-12-17T14:32:42.633Z,67.67
2018-12-17T14:35:11.270Z,65.53
2018-12-17T14:38:12.207Z,73.20
2018-12-17T14:40:40.629Z,67.53
2018-12-17T14:43:09.090Z,71.77
2018-12-17T14:45:37.615Z,65.97
2018-12-17T14:48:06.221Z,68.67
2018-12-17T14:50:34.771Z,66.83
2018-12-17T14:53:03.355Z,72.37
2018-12-17T14:55:31.874Z,68.10
2018-12-17T14:58:00.639Z,66.07
2018-12-17T15:00:29.107Z,64.70
2018-12-17T15:02:57.803Z,66.43
2018-12-17T15:05:26.580Z,60.93
2018-12-17T15:07:56.596Z,60.23
2018-12-17T15:10:26.152Z,62.63
2018-12-17T15:12:54.587Z,63.60
2018-12-17T15:15:23.100Z,59.07
2018-12-17T15:17:51.633Z,56.63
2018-12-17T15:20:20.278Z,56.03
2018-12-17T15:22:48.786Z,57.60
2018-12-17T15:25:17.277Z,52.13
2018-12-17T15:27:45.957Z,52.90
2018-12-17T15:30:14.477Z,53.77
2018-12-17T15:32:42.974Z,54.23
2018-12-17T15:35:11.535Z,56.07
2018-12-17T15:37:40.087Z,54.73
2018-12-17T15:40:08.616Z,52.90
2018-12-17T15:42:40.840Z,55.70
2018-12-17T15:45:08.043Z,52.20
2018-12-17T15:47:36.579Z,61.07
2018-12-17T15:50:05.855Z,52.33
2018-12-17T15:52:34.393Z,56.07
2018-12-17T15:55:02.886Z,55.33
2018-12-17T15:57:31.459Z,53.47
2018-12-17T15:59:59.960Z,55.90
2018-12-17T16:02:28.510Z,55.33
2018-12-17T16:04:57.040Z,54.80
2018-12-17T16:07:25.533Z,58.07
2018-12-17T16:09:56.328Z,56.40
2018-12-17T16:12:25.109Z,58.77
2018-12-17T16:14:53.635Z,60.27
2018-12-17T16:17:22.105Z,60.13
2018-12-17T16:19:50.602Z,54.40
2018-12-17T16:22:19.136Z,58.80
2018-12-17T16:24:47.603Z,56.63
2018-12-17T16:27:19.249Z,51.60
2018-12-17T16:29:46.567Z,48.83
2018-12-17T16:32:15.031Z,47.73
2018-12-17T16:34:43.523Z,53.13
2018-12-17T16:37:11.943Z,48.80
2018-12-17T16:39:40.526Z,46.30
2018-12-17T16:42:09.007Z,42.80
2018-12-17T16:44:37.605Z,45.27
2018-12-17T16:47:06.157Z,45.73
2018-12-17T16:49:34.743Z,48.07
2018-12-17T16:52:03.195Z,49.70
2018-12-17T16:54:31.681Z,57.63
2018-12-17T16:57:00.131Z,51.10
2018-12-17T16:59:28.551Z,44.53
2018-12-17T17:01:57.007Z,55.17
2018-12-17T17:04:25.496Z,45.03
2018-12-17T17:06:53.938Z,44.03
2018-12-17T17:09:22.608Z,42.47
2018-12-17T17:11:51.075Z,41.93
2018-12-17T17:14:19.572Z,44.00
2018-12-17T17:16:48.277Z,43.10
2018-12-17T17:19:16.967Z,47.27
2018-12-17T17:21:45.791Z,42.53
2018-12-17T17:24:14.340Z,44.67
2018-12-17T17:26:42.826Z,38.83
2018-12-17T17:29:11.304Z,41.23
2018-12-17T17:31:39.783Z,41.87
2018-12-17T17:34:08.220Z,40.37
2018-12-17T17:36:36.629Z,41.97
2018-12-17T17:39:07.982Z,45.17
2018-12-17T17:41:36.403Z,43.20
2018-12-17T17:44:05.127Z,47.13
2018-12-17T17:46:33.535Z,42.00
2018-12-17T17:49:02.000Z,44.17
2018-12-17T17:51:30.423Z,48.60
2018-12-17T17:53:58.871Z,47.73
2018-12-17T17:56:27.364Z,36.03
2018-12-17T17:58:55.846Z,32.87
2018-12-17T18:01:24.291Z,36.33
2018-12-17T18:03:52.775Z,40.47
2018-12-17T18:06:21.215Z,34.73
2018-12-17T18:08:49.707Z,38.47
2018-12-17T18:11:18.153Z,38.83
2018-12-17T18:13:46.811Z,37.60
2018-12-17T18:16:15.233Z,33.37
2018-12-17T18:18:43.764Z,34.83
2018-12-17T18:21:12.231Z,35.70
2018-12-17T18:23:40.659Z,30.80
2018-12-17T18:26:09.132Z,31.87
2018-12-17T18:28:37.572Z,35.77
2018-12-17T18:31:05.987Z,35.33
2018-12-17T18:33:34.439Z,34.00
2018-12-17T18:36:03.019Z,28.37
2018-12-17T18:38:31.453Z,29.53
2018-12-17T18:41:01.096Z,31.57
2018-12-17T18:43:29.558Z,27.57
2018-12-17T18:45:58.047Z,33.90
2018-12-17T18:48:26.495Z,31.87
2018-12-17T18:50:54.908Z,32.40
2018-12-17T18:53:23.720Z,28.23
2018-12-17T18:55:52.143Z,29.23
2018-12-17T18:58:20.591Z,28.07
2018-12-17T19:00:49.047Z,30.87
2018-12-17T19:03:17.560Z,31.00
2018-12-17T19:05:45.968Z,28.87
2018-12-17T19:08:14.419Z,34.43
2018-12-17T19:10:48.415Z,33.83
2018-12-17T19:13:16.819Z,30.93
2018-12-17T19:15:45.292Z,26.70
2018-12-17T19:18:13.719Z,30.13
2018-12-17T19:20:42.173Z,27.50
2018-12-17T19:23:10.650Z,26.27
2018-12-17T19:25:39.168Z,26.20
2018-12-17T19:28:07.823Z,30.00
2018-12-17T19:30:36.292Z,30.30
2018-12-17T19:33:04.887Z,29.03
2018-12-17T19:35:33.423Z,32.20
2018-12-17T19:38:01.871Z,35.30
2018-12-17T19:40:30.448Z,31.30
2018-12-17T19:42:59.111Z,32.27
2018-12-17T19:45:27.601Z,29.27
2018-12-17T19:47:57.094Z,28.13
2018-12-17T19:50:25.524Z,29.60
2018-12-17T19:52:53.991Z,30.27
2018-12-17T19:55:22.453Z,27.07
2018-12-17T19:57:51.083Z,27.27
2018-12-17T20:00:19.583Z,27.30
2018-12-17T20:02:48.009Z,30.10
2018-12-17T20:05:16.537Z,34.23
2018-12-17T20:07:45.018Z,28.10
2018-12-17T20:10:18.965Z,30.47
2018-12-17T20:12:47.417Z,28.87
2018-12-17T20:15:15.836Z,29.83
2018-12-17T20:17:44.358Z,28.47
2018-12-17T20:20:12.926Z,30.93
2018-12-17T20:22:41.378Z,30.77
2018-12-17T20:25:09.831Z,28.07
2018-12-17T20:27:38.383Z,30.77
2018-12-17T20:30:08.512Z,29.80
2018-12-17T20:32:36.963Z,28.40
2018-12-17T20:35:06.794Z,27.83
2018-12-17T20:37:35.252Z,31.83
2018-12-17T20:40:04.547Z,32.60
2018-12-17T20:42:33.809Z,33.30
2018-12-17T20:45:02.252Z,33.77
2018-12-17T20:47:30.763Z,44.73
2018-12-17T20:49:59.230Z,36.67
2018-12-17T20:52:27.657Z,34.50
2018-12-17T20:54:56.108Z,34.40
2018-12-17T20:57:24.575Z,33.83
2018-12-17T20:59:53.008Z,35.40
2018-12-17T21:02:21.487Z,36.33
2018-12-17T21:04:49.906Z,35.23
2018-12-17T21:07:18.330Z,33.93
2018-12-17T21:09:46.820Z,35.33
2018-12-17T21:12:15.239Z,36.63
2018-12-17T21:14:43.695Z,37.67
2018-12-17T21:17:12.171Z,36.43
2018-12-17T21:19:40.682Z,37.07
2018-12-17T21:22:10.779Z,35.90
2018-12-17T21:24:39.253Z,39.37
2018-12-17T21:27:07.828Z,37.23
2018-12-17T21:29:36.267Z,37.40
2018-12-17T21:32:04.874Z,41.90
2018-12-17T21:34:33.425Z,37.57
2018-12-17T21:37:01.907Z,35.63
2018-12-17T21:39:30.407Z,39.63
2018-12-17T21:41:58.807Z,41.00
2018-12-17T21:44:27.280Z,39.63
2018-12-17T21:46:55.743Z,40.20
2018-12-17T21:49:24.176Z,37.70
2018-12-17T21:51:52.602Z,41.37
2018-12-17T21:54:21.064Z,37.10
2018-12-17T21:56:49.479Z,36.37
2018-12-17T21:59:17.943Z,37.63
2018-12-17T22:01:46.417Z,35.50
2018-12-17T22:04:15.244Z,34.77
2018-12-17T22:06:43.655Z,35.00
2018-12-17T22:09:12.117Z,37.13
2018-12-17T22:11:40.543Z,36.27
2018-12-17T22:14:09.026Z,34.63
2018-12-17T22:16:37.443Z,61.40
2018-12-17T22:19:05.886Z,31.97
2018-12-17T22:21:34.353Z,36.43
2018-12-17T22:24:03.005Z,31.17
2018-12-17T22:26:31.405Z,33.03
2018-12-17T22:28:59.859Z,39.47
2018-12-17T22:31:28.426Z,33.63
2018-12-17T22:33:56.875Z,32.23
2018-12-17T22:36:25.294Z,34.83
2018-12-17T22:38:53.902Z,35.07
2018-12-17T22:41:22.375Z,33.63
2018-12-17T22:43:50.860Z,34.83
2018-12-17T22:46:19.337Z,34.47
2018-12-17T22:48:47.867Z,34.97
2018-12-17T22:51:16.287Z,35.40
2018-12-17T22:53:44.747Z,37.97
2018-12-17T22:56:13.173Z,35.93
2018-12-17T22:58:42.524Z,38.47
2018-12-17T23:01:11.708Z,38.90
2018-12-17T23:03:40.161Z,37.93
2018-12-17T23:06:08.643Z,36.67
2018-12-17T23:08:40.566Z,37.53
2018-12-17T23:11:20.291Z,36.13
2018-12-17T23:14:00.005Z,40.63
2018-12-17T23:16:39.809Z,36.70
2018-12-17T23:19:07.175Z,35.90
2018-12-17T23:21:35.772Z,36.83
2018-12-17T23:24:04.483Z,40.57
2018-12-17T23:26:32.963Z,37.50
2018-12-17T23:29:01.419Z,37.27
2018-12-17T23:31:29.827Z,40.00
2018-12-17T23:33:58.315Z,40.43
2018-12-17T23:36:26.731Z,38.73
2018-12-17T23:38:55.171Z,38.30
2018-12-17T23:41:23.637Z,32.77
2018-12-17T23:43:52.088Z,34.70
2018-12-17T23:46:20.510Z,35.50
2018-12-17T23:48:48.936Z,35.73
2018-12-17T23:51:17.927Z,37.43
2018-12-17T23:53:46.388Z,32.73
2018-12-17T23:56:15.911Z,36.97
2018-12-17T23:58:44.370Z,34.87
